Hovedside
METAR-TAF:

METAR-TAF

Lufthavner :

Björneborg lufthavn

Björneborg, Finland

breddegrad: 61-28N, lengdegrad: 021-48E, høyde over havet: 13 m

Gjeldene værobservasjon

Denne rapporten ble laget for 18 minutter siden, klokken 13:50 UTC
Vind 9 kt fra Sørvest
Temperatur 3°C
Luftfuktighet 87%
Trykk 1018 hPa
Sikt 10 km eller mer
ukjent

METAR: EFPO 201350Z AUTO 22009KT 9999 UP NSC 03/01 Q1018

Tid: 16:08 (14:08 UTC)

Varsel

Denne rapporten ble laget for 2 timer og 45 minutter siden, klokken 11:23 UTC
Varsel gyldig fra 20. klokken 12 UTC til 20. klokken 21 UTC
Vind 9 kt fra Vest
Sikt 10 km eller mer
lett regn
Midlertidig
fra 20. klokken 12 UTC til 20. klokken 18 UTC
Brutte skyer i en høyde av 800 ft

TAF: EFPO 201123Z 2012/2021 26009KT 9999 -RA NSC TEMPO 2012/2018 BKN008

Værobservasjoner og værvarsel for over 4000 flyplasser (METAR- og TAF-rapporter).

Tilgjengelige stasjoner er representert av de røde og gule prikkene på kartet.

Hold musepekeren over prikken for å se navnet på stasjonen.

Klikk så for å se værobservasjoner og -varsler.

For å forandre kartet kan du klikke på den grønne knappen med svart kryss for å zoome inn, på den grønne knappen med strek for å zoome ut, eller på de grønne pilene for å se tilstøtende kart.


METAR-TAF: